aviador You're here:

KMEI Decoded Metar

MERIDIAN/KEY FLD in MS, USA
Report Time2018-01-16 20:58:00
UTC Time2018-01-16 21:17:53
Flight Rules mvfr MVFR
Wind350° at 13 kt
W.Decomp.*RWY 01: 12.4 kt HW 4 kt LCW
RWY 04: 8.7 kt HW 9.7 kt LCW
W.Rank350° ranks 5
Current wind is above 350° avg. (6.8)
Visibility8047 m
Phenomena:Light Snow
Clouds:Broken 017 Hf
Overcast 065 Hf
Expected CloudBase > 1,200 ft AGL from Temp-Dew spread
Ceiling1,700 ft
Temp-2°C (ISA -16)
Dew Point-5°C (80% RH)
AAT-9.3°C
QNH1033 hPa
Density Alt-2,343 ft
Elevation292 ft
Report Wrong Elevation
Raw Report
KMEI 162058Z 35013KT 5SM -SN BKN017 OVC065 M02/M05 A3051 RMK AO2
SLP332 P0001 60001 T10171050 58001=

Extra information for KMEI:More info

Metar Taf Metar & Taf Last 4 Metars F.Rules Stats Wind Profile Meteogram Temp Stats Airport Information Weather charts Add Link Nearby VenuesMetar ALERT Operation Metar Decoded Social comments

AIRNAV info for KMEI